This is the latest recevied weather packets stored in our database for station/object NC4M. If no packets are shown the sender has not sent any weather packets the latest 10 day(s).
| Time | Temp. | Humidity | Pressure | Rain* | Wind** | Luminosity | Snow |
|---|---|---|---|---|---|---|---|
| 1777490403 | 16.67° C | 47% | 1017.7 hPa | 0 mm | - | 185 W/m² | - |
| 1777490099 | 16.67° C | 50% | 1018 hPa | 0 mm | - | 366 W/m² | - |
| 1777489796 | 17.22° C | 48% | 1018.4 hPa | 0 mm | - | 124 W/m² | - |
| 1777489494 | 16.67° C | 50% | 1018.1 hPa | 0 mm | - | 383 W/m² | - |
| 1777489190 | 16.67° C | 49% | 1018.4 hPa | 0 mm | - | 328 W/m² | - |
| 1777488887 | 16.67° C | 49% | 1018.3 hPa | 0 mm | - | 523 W/m² | - |
| 1777488584 | 16.67° C | 49% | 1018.7 hPa | 0 mm | - | 291 W/m² | - |
| 1777488282 | 16.67° C | 49% | 1018.7 hPa | 0 mm | - | 118 W/m² | - |
| 1777487980 | 16.67° C | 45% | 1018.8 hPa | 0 mm | - | 289 W/m² | - |
| 1777487677 | 16.67° C | 49% | 1018.7 hPa | 0 mm | - | 873 W/m² | - |
| 1777487374 | 16.67° C | 49% | 1019 hPa | 0 mm | - | 764 W/m² | - |
| 1777487072 | 16.67° C | 51% | 1018.9 hPa | 0 mm | - | 926 W/m² | - |
| 1777486767 | 17.22° C | 49% | 1019 hPa | 0 mm | - | 563 W/m² | - |
| 1777486466 | 16.67° C | 50% | 1019 hPa | 0 mm | - | 1003 W/m² | - |
| 1777486163 | 16.11° C | 50% | 1018.9 hPa | 0 mm | - | 897 W/m² | - |
| 1777485860 | 16.11° C | 48% | 1019.4 hPa | 0 mm | - | 813 W/m² | - |
| 1777485560 | 16.67° C | 45% | 1019.2 hPa | 0 mm | - | 871 W/m² | - |
| 1777485257 | 16.67° C | 50% | 1019.3 hPa | 0 mm | - | 840 W/m² | - |
| 1777484954 | 16.67° C | 49% | 1019.4 hPa | 0 mm | - | 372 W/m² | - |
| 1777484650 | 16.11° C | 52% | 1019.3 hPa | 0 mm | - | 909 W/m² | - |
| 1777484347 | 16.11° C | 53% | 1019.2 hPa | 0 mm | - | 832 W/m² | - |
| 1777484042 | 16.67° C | 47% | 1019.3 hPa | 0 mm | - | 299 W/m² | - |
| 1777483739 | 16.67° C | 47% | 1019.3 hPa | 0 mm | - | 422 W/m² | - |
| 1777483435 | 16.67° C | 49% | 1019.2 hPa | 0 mm | - | 925 W/m² | - |
| 1777483130 | 16.67° C | 48% | 1019.1 hPa | 0 mm | - | 999 W/m² | - |
* Rain latest hour (hover to see other rain measurements)
** Current wind speed in m/s (hover to see current wind gust speed)